createdAt,value
2023-07-20T00:02:17.526Z,78.73
2023-07-20T00:04:45.166Z,78.54
2023-07-20T00:07:12.886Z,81.05
2023-07-20T00:09:40.544Z,79.89
2023-07-20T00:12:09.509Z,78.96
2023-07-20T00:14:38.477Z,80.98
2023-07-20T00:17:06.950Z,78.92
2023-07-20T00:19:36.025Z,79.89
2023-07-20T00:22:05.698Z,81.40
2023-07-20T00:24:34.059Z,80.94
2023-07-20T00:27:03.825Z,81.82
2023-07-20T00:29:31.552Z,77.98
2023-07-20T00:32:00.921Z,74.63
2023-07-20T00:34:28.650Z,77.00
2023-07-20T00:36:56.262Z,77.02
2023-07-20T00:39:23.847Z,79.02
2023-07-20T00:41:51.786Z,76.40
2023-07-20T00:44:19.385Z,76.54
2023-07-20T00:46:47.642Z,74.18
2023-07-20T00:49:17.289Z,77.16
2023-07-20T00:51:45.767Z,77.05
2023-07-20T00:54:13.391Z,77.04
2023-07-20T00:56:41.400Z,77.34
2023-07-20T00:59:09.180Z,72.24
2023-07-20T01:01:36.848Z,74.71
2023-07-20T01:04:05.288Z,75.44
2023-07-20T01:06:42.106Z,77.65
2023-07-20T01:09:16.395Z,76.31
2023-07-20T01:11:56.244Z,78.73
2023-07-20T01:14:25.364Z,81.01
2023-07-20T01:16:53.555Z,80.91
2023-07-20T01:21:59.079Z,80.54
2023-07-20T01:25:00.736Z,80.82
2023-07-20T01:27:48.137Z,81.28
2023-07-20T01:30:32.385Z,79.73
2023-07-20T01:33:02.745Z,80.91
2023-07-20T01:35:32.219Z,75.09
2023-07-20T01:38:01.445Z,76.59
2023-07-20T01:40:29.533Z,77.59
2023-07-20T01:42:57.191Z,76.83
2023-07-20T01:45:24.784Z,77.26
2023-07-20T01:47:52.474Z,77.97
2023-07-20T01:50:21.811Z,78.60
2023-07-20T01:52:49.418Z,78.71
2023-07-20T01:55:17.101Z,80.82
2023-07-20T01:57:44.755Z,75.88
2023-07-20T02:00:13.646Z,75.79
2023-07-20T02:02:41.508Z,79.95
2023-07-20T02:05:09.671Z,79.30
2023-07-20T02:07:38.649Z,80.87
2023-07-20T02:10:07.380Z,78.92
2023-07-20T02:12:35.007Z,80.58
2023-07-20T02:15:03.320Z,82.06
2023-07-20T02:17:31.216Z,77.03
2023-07-20T02:19:59.515Z,82.14
2023-07-20T02:22:27.205Z,83.94
2023-07-20T02:24:56.206Z,84.37
2023-07-20T02:27:23.824Z,84.13
2023-07-20T02:29:51.861Z,83.41
2023-07-20T02:32:19.470Z,79.92
2023-07-20T02:34:47.068Z,81.54
2023-07-20T02:37:14.689Z,83.99
2023-07-20T02:39:42.385Z,84.50
2023-07-20T02:42:11.399Z,81.59
2023-07-20T02:44:38.984Z,83.20
2023-07-20T02:47:07.247Z,81.07
2023-07-20T02:49:34.902Z,79.05
2023-07-20T02:52:02.959Z,78.33
2023-07-20T02:54:31.780Z,80.14
2023-07-20T02:56:59.392Z,82.79
2023-07-20T02:59:28.354Z,75.53
2023-07-20T03:01:56.733Z,75.59
2023-07-20T03:04:25.162Z,74.54
2023-07-20T03:06:52.936Z,80.72
2023-07-20T03:09:20.638Z,75.34
2023-07-20T03:11:48.852Z,76.41
2023-07-20T03:14:16.418Z,74.29
2023-07-20T03:16:45.390Z,75.91
2023-07-20T03:19:13.091Z,78.34
2023-07-20T03:21:42.124Z,80.03
2023-07-20T03:24:10.446Z,78.71
2023-07-20T03:26:38.402Z,78.26
2023-07-20T03:29:07.727Z,76.19
2023-07-20T03:31:35.473Z,78.59
2023-07-20T03:34:04.882Z,77.19
2023-07-20T03:36:32.696Z,72.62
2023-07-20T03:39:00.333Z,73.18
2023-07-20T03:41:27.971Z,76.69
2023-07-20T03:43:55.562Z,78.94
2023-07-20T03:46:23.682Z,73.55
2023-07-20T03:48:51.495Z,71.12
2023-07-20T03:51:20.496Z,76.72
2023-07-20T03:53:48.095Z,74.12
2023-07-20T03:56:15.715Z,75.70
2023-07-20T03:58:43.325Z,79.36
2023-07-20T04:01:11.478Z,73.75
2023-07-20T04:03:39.095Z,77.82
2023-07-20T04:06:06.796Z,81.21
2023-07-20T04:08:35.835Z,81.13
2023-07-20T04:11:03.781Z,82.15
2023-07-20T04:13:34.398Z,81.67
2023-07-20T04:16:02.163Z,82.57
2023-07-20T04:18:29.833Z,80.55
2023-07-20T04:20:57.533Z,81.08
2023-07-20T04:23:25.171Z,78.23
2023-07-20T04:25:54.703Z,79.31
2023-07-20T04:28:22.353Z,80.65
2023-07-20T04:30:52.425Z,79.16
2023-07-20T04:33:20.432Z,81.37
2023-07-20T04:35:51.269Z,80.10
2023-07-20T04:38:19.372Z,82.39
2023-07-20T04:40:47.833Z,82.93
2023-07-20T04:43:17.308Z,82.37
2023-07-20T04:45:44.948Z,82.75
2023-07-20T04:48:14.166Z,82.67
2023-07-20T04:50:42.705Z,80.16
2023-07-20T04:53:11.263Z,77.08
2023-07-20T04:55:39.285Z,78.93
2023-07-20T04:58:07.419Z,81.53
2023-07-20T05:00:36.666Z,82.63
2023-07-20T05:03:06.387Z,77.96
2023-07-20T05:05:34.287Z,77.15
2023-07-20T05:08:01.882Z,81.13
2023-07-20T05:10:29.567Z,81.45
2023-07-20T05:12:57.191Z,80.63
2023-07-20T05:15:24.840Z,82.42
2023-07-20T05:17:53.824Z,83.40
2023-07-20T05:20:22.144Z,81.92
2023-07-20T05:22:50.283Z,79.62
2023-07-20T05:25:19.850Z,79.00
2023-07-20T05:27:47.753Z,78.09
2023-07-20T05:30:15.366Z,75.58
2023-07-20T05:32:43.032Z,74.51
2023-07-20T05:35:12.958Z,77.86
2023-07-20T05:37:40.600Z,75.11
2023-07-20T05:40:11.224Z,72.74
2023-07-20T05:42:39.142Z,76.83
2023-07-20T05:45:08.494Z,73.52
2023-07-20T05:47:36.171Z,78.80
2023-07-20T05:50:04.617Z,75.47
2023-07-20T05:52:34.064Z,76.69
2023-07-20T05:55:01.694Z,76.00
2023-07-20T05:57:29.317Z,77.57
2023-07-20T05:59:56.923Z,71.88
2023-07-20T06:02:24.610Z,74.50
2023-07-20T06:04:52.205Z,73.84
2023-07-20T06:07:19.916Z,73.07
2023-07-20T06:09:48.858Z,72.34
2023-07-20T06:12:16.447Z,71.84
2023-07-20T06:14:44.321Z,72.36
2023-07-20T06:17:11.981Z,73.16
2023-07-20T06:19:39.600Z,72.17
2023-07-20T06:22:07.560Z,72.30
2023-07-20T06:24:35.180Z,69.25
2023-07-20T06:27:04.385Z,72.52
2023-07-20T06:29:32.012Z,71.92
2023-07-20T06:31:59.649Z,72.08
2023-07-20T06:34:27.228Z,73.36
2023-07-20T06:36:54.836Z,72.74
2023-07-20T06:41:55.632Z,73.72
2023-07-20T06:44:24.925Z,72.94
2023-07-20T06:46:52.519Z,75.56
2023-07-20T06:49:26.943Z,74.17
2023-07-20T06:51:54.777Z,76.00
2023-07-20T06:54:24.080Z,75.63
2023-07-20T06:57:17.010Z,77.45
2023-07-20T06:59:41.690Z,76.75
2023-07-20T07:02:14.627Z,76.21
2023-07-20T07:04:43.178Z,75.53
2023-07-20T07:07:11.209Z,75.21
2023-07-20T07:09:38.872Z,76.17
2023-07-20T07:12:07.609Z,77.19
2023-07-20T07:14:35.896Z,74.50
2023-07-20T07:17:05.835Z,75.00
2023-07-20T07:19:33.782Z,77.14
2023-07-20T07:22:01.452Z,76.34
2023-07-20T07:24:34.698Z,77.09
2023-07-20T07:27:02.484Z,77.66
2023-07-20T07:29:30.487Z,78.39
2023-07-20T07:31:58.209Z,80.03
2023-07-20T07:34:27.493Z,79.42
2023-07-20T07:36:55.213Z,79.48
2023-07-20T07:41:53.490Z,80.81
2023-07-20T07:44:22.317Z,79.56
2023-07-20T07:46:50.174Z,75.30
2023-07-20T07:49:17.949Z,77.16
2023-07-20T07:51:47.298Z,77.29
2023-07-20T07:54:14.938Z,80.66
2023-07-20T07:56:43.927Z,79.12
2023-07-20T07:59:12.348Z,82.39
2023-07-20T08:01:39.995Z,83.47
2023-07-20T08:04:07.737Z,81.69
2023-07-20T08:06:35.542Z,80.68
2023-07-20T08:09:04.756Z,80.75
2023-07-20T08:11:34.649Z,81.29
2023-07-20T08:14:02.550Z,78.77
2023-07-20T08:16:30.701Z,80.01
2023-07-20T08:18:58.701Z,79.03
2023-07-20T08:21:26.532Z,77.48
2023-07-20T08:23:54.155Z,75.23
2023-07-20T08:26:24.106Z,71.56
2023-07-20T08:28:51.921Z,73.44
2023-07-20T08:31:19.573Z,74.04
2023-07-20T08:33:47.223Z,70.16
2023-07-20T08:36:14.818Z,71.02
2023-07-20T08:38:42.561Z,68.10
2023-07-20T08:41:11.244Z,67.24
2023-07-20T08:43:44.742Z,70.49
2023-07-20T08:46:13.681Z,66.29
2023-07-20T08:48:42.925Z,65.40
2023-07-20T08:51:12.521Z,68.73
2023-07-20T08:53:40.934Z,65.57
2023-07-20T08:56:11.982Z,70.08
2023-07-20T08:58:44.788Z,65.88
2023-07-20T09:01:13.595Z,63.68
2023-07-20T09:03:41.805Z,65.85
2023-07-20T09:06:09.775Z,67.22
2023-07-20T09:08:40.242Z,61.93
2023-07-20T09:11:07.923Z,63.13
2023-07-20T09:13:35.959Z,63.19
2023-07-20T09:18:36.313Z,59.59
2023-07-20T09:21:05.101Z,62.31
2023-07-20T09:23:35.141Z,63.50
2023-07-20T09:26:03.188Z,65.82
2023-07-20T09:28:30.801Z,64.91
2023-07-20T09:30:59.572Z,64.11
2023-07-20T09:33:29.132Z,64.31
2023-07-20T09:36:18.945Z,65.10
2023-07-20T09:43:54.818Z,61.12
2023-07-20T09:51:29.602Z,56.51
2023-07-20T09:53:57.922Z,54.87
2023-07-20T09:56:27.458Z,54.40
2023-07-20T09:58:55.327Z,55.87
2023-07-20T10:01:26.064Z,56.99
2023-07-20T10:04:02.416Z,52.91
2023-07-20T10:06:31.764Z,53.57
2023-07-20T10:09:07.447Z,56.04
2023-07-20T10:11:38.410Z,52.44
2023-07-20T10:14:07.660Z,50.06
2023-07-20T10:16:38.090Z,54.03
2023-07-20T10:21:44.570Z,53.42
2023-07-20T10:24:13.729Z,49.21
2023-07-20T10:26:42.465Z,53.38
2023-07-20T10:29:10.794Z,55.08
2023-07-20T10:31:39.799Z,55.69
2023-07-20T10:34:08.955Z,51.70
2023-07-20T10:36:46.185Z,51.78
2023-07-20T10:39:25.383Z,53.17
2023-07-20T10:42:02.104Z,50.70
2023-07-20T10:44:29.939Z,49.86
2023-07-20T10:47:01.804Z,48.31
2023-07-20T10:49:31.178Z,48.08
2023-07-20T10:52:00.368Z,47.52
2023-07-20T10:54:49.717Z,47.66
2023-07-20T10:57:24.830Z,49.48
2023-07-20T10:59:52.672Z,41.60
2023-07-20T11:02:22.000Z,46.33
2023-07-20T11:04:51.428Z,43.41
2023-07-20T11:07:20.207Z,44.25
2023-07-20T11:09:50.027Z,42.51
2023-07-20T11:12:19.817Z,46.50
2023-07-20T11:14:58.068Z,46.56
2023-07-20T11:17:32.109Z,43.67
2023-07-20T11:22:33.614Z,46.80
2023-07-20T11:25:01.273Z,49.04
2023-07-20T11:27:29.559Z,44.92
2023-07-20T11:29:58.726Z,44.23
2023-07-20T11:32:26.437Z,45.62
2023-07-20T11:34:54.090Z,46.81
2023-07-20T11:37:24.031Z,43.30
2023-07-20T11:39:56.851Z,43.84
2023-07-20T11:44:55.119Z,40.11
2023-07-20T11:47:22.846Z,42.05
2023-07-20T11:49:55.502Z,42.77
2023-07-20T11:52:25.860Z,42.81
2023-07-20T11:54:54.588Z,40.45
2023-07-20T11:57:22.828Z,41.33
2023-07-20T11:59:58.381Z,38.87
2023-07-20T12:02:27.197Z,39.74
2023-07-20T12:04:56.281Z,41.75
2023-07-20T12:07:26.081Z,42.32
2023-07-20T12:10:05.511Z,41.29
2023-07-20T12:12:33.656Z,40.02
2023-07-20T12:15:17.584Z,40.06
2023-07-20T12:17:45.982Z,40.72
2023-07-20T12:20:15.137Z,40.50
2023-07-20T12:22:45.761Z,38.88
2023-07-20T12:25:13.420Z,38.82
2023-07-20T12:27:41.251Z,38.45
2023-07-20T12:30:09.967Z,35.14
2023-07-20T12:32:37.564Z,39.15
2023-07-20T12:35:05.724Z,40.96
2023-07-20T12:37:33.712Z,34.63
2023-07-20T12:40:02.684Z,32.08
2023-07-20T12:42:30.431Z,35.65
2023-07-20T12:44:58.054Z,33.75
2023-07-20T12:47:25.804Z,35.16
2023-07-20T12:49:53.492Z,33.81
2023-07-20T12:52:21.100Z,35.75
2023-07-20T12:54:48.701Z,36.39
2023-07-20T12:57:17.629Z,37.73
2023-07-20T12:59:45.226Z,37.55
2023-07-20T13:02:12.828Z,37.80
2023-07-20T13:04:40.465Z,37.83
2023-07-20T13:09:42.474Z,36.66
2023-07-20T13:12:10.809Z,31.44
2023-07-20T13:14:39.717Z,33.61
2023-07-20T13:17:07.624Z,31.91
2023-07-20T13:19:38.310Z,31.49
2023-07-20T13:22:06.584Z,32.82
2023-07-20T13:24:34.294Z,30.19
2023-07-20T13:27:02.041Z,31.02
2023-07-20T13:29:29.767Z,33.71
2023-07-20T13:31:58.786Z,31.63
2023-07-20T13:34:29.824Z,33.11
2023-07-20T13:37:00.006Z,33.68
2023-07-20T13:39:28.890Z,34.60
2023-07-20T13:41:56.944Z,30.70
2023-07-20T13:44:24.736Z,34.27
2023-07-20T13:46:52.925Z,33.63
2023-07-20T13:49:25.100Z,31.97
2023-07-20T13:56:53.797Z,32.98
2023-07-20T13:59:21.457Z,36.33
2023-07-20T14:01:49.121Z,31.76
2023-07-20T14:04:17.017Z,32.38
2023-07-20T14:06:46.310Z,33.08
2023-07-20T14:09:14.024Z,34.02
2023-07-20T14:14:12.683Z,34.95
2023-07-20T14:16:40.382Z,30.52
2023-07-20T14:19:08.033Z,27.96
2023-07-20T14:21:35.699Z,33.34
2023-07-20T14:24:05.384Z,36.39
2023-07-20T14:26:33.983Z,36.10
2023-07-20T14:29:02.607Z,32.39
2023-07-20T14:31:30.356Z,34.64
2023-07-20T14:33:58.314Z,36.81
2023-07-20T14:36:27.869Z,33.73
2023-07-20T14:38:55.653Z,37.24
2023-07-20T14:41:24.594Z,38.54
2023-07-20T14:43:52.259Z,39.70
2023-07-20T14:46:21.475Z,38.28
2023-07-20T14:48:49.752Z,39.87
2023-07-20T14:51:17.361Z,35.58
2023-07-20T14:53:44.968Z,37.76
2023-07-20T14:56:12.620Z,36.13
2023-07-20T14:58:41.615Z,35.98
2023-07-20T15:01:09.252Z,39.08
2023-07-20T15:03:36.872Z,33.20
2023-07-20T15:06:04.751Z,31.43
2023-07-20T15:08:32.768Z,34.03
2023-07-20T15:11:00.398Z,37.80
2023-07-20T15:13:29.241Z,35.25
2023-07-20T15:15:58.990Z,35.81
2023-07-20T15:18:41.456Z,36.46
2023-07-20T15:21:14.463Z,32.57
2023-07-20T15:23:42.155Z,35.88
2023-07-20T15:26:09.972Z,33.57
2023-07-20T15:28:37.577Z,30.38
2023-07-20T15:31:07.127Z,34.26
2023-07-20T15:33:35.203Z,36.90
2023-07-20T15:36:02.951Z,38.37
2023-07-20T15:38:30.572Z,36.80
2023-07-20T15:41:01.584Z,36.41
2023-07-20T15:43:29.260Z,39.70
2023-07-20T15:46:37.329Z,36.69
2023-07-20T15:49:06.345Z,38.14
2023-07-20T15:51:34.550Z,36.05
2023-07-20T15:54:02.154Z,34.81
2023-07-20T15:56:28.774Z,36.56
2023-07-20T15:58:56.378Z,33.35
2023-07-20T16:01:24.259Z,34.02
2023-07-20T16:03:52.253Z,39.43
2023-07-20T16:06:21.348Z,34.85
2023-07-20T16:08:49.115Z,35.97
2023-07-20T16:11:16.719Z,37.55
2023-07-20T16:13:45.280Z,38.54
2023-07-20T16:16:13.279Z,39.97
2023-07-20T16:18:40.942Z,38.32
2023-07-20T16:21:08.585Z,38.40
2023-07-20T16:23:37.578Z,38.03
2023-07-20T16:26:05.262Z,40.50
2023-07-20T16:28:32.918Z,39.00
2023-07-20T16:31:00.887Z,39.13
2023-07-20T16:33:31.518Z,39.20
2023-07-20T16:35:59.399Z,39.44
2023-07-20T16:38:27.154Z,37.69
2023-07-20T16:40:58.863Z,34.75
2023-07-20T16:46:01.015Z,38.66
2023-07-20T16:48:28.777Z,38.48
2023-07-20T16:50:56.903Z,39.47
2023-07-20T16:53:24.614Z,36.50
2023-07-20T16:55:53.241Z,37.01
2023-07-20T16:58:22.496Z,37.32
2023-07-20T17:00:50.506Z,39.18
2023-07-20T17:03:19.347Z,39.08
2023-07-20T17:05:47.519Z,37.32
2023-07-20T17:08:15.658Z,39.75
2023-07-20T17:10:43.516Z,36.61
2023-07-20T17:13:11.935Z,35.95
2023-07-20T17:15:40.910Z,37.92
2023-07-20T17:18:08.636Z,38.67
2023-07-20T17:23:06.854Z,37.77
2023-07-20T17:25:34.539Z,38.57
2023-07-20T17:30:32.682Z,37.68
2023-07-20T17:33:01.639Z,37.29
2023-07-20T17:35:29.992Z,39.19
2023-07-20T17:45:30.938Z,38.84
2023-07-20T17:47:58.640Z,35.91
2023-07-20T17:50:29.056Z,37.36
2023-07-20T17:52:57.010Z,41.40
2023-07-20T17:55:24.773Z,40.62
2023-07-20T17:57:52.444Z,40.01
2023-07-20T18:02:51.207Z,38.88
2023-07-20T18:05:18.964Z,37.25
2023-07-20T18:07:47.923Z,38.96
2023-07-20T18:10:16.136Z,39.78
2023-07-20T18:12:43.943Z,43.25
2023-07-20T18:15:11.817Z,40.78
2023-07-20T18:17:40.735Z,42.77
2023-07-20T18:20:10.587Z,42.11
2023-07-20T18:22:39.212Z,43.68
2023-07-20T18:25:09.184Z,40.87
2023-07-20T18:27:38.075Z,44.46
2023-07-20T18:30:07.391Z,45.85
2023-07-20T18:32:35.234Z,42.78
2023-07-20T18:35:03.801Z,44.01
2023-07-20T18:37:31.414Z,44.33
2023-07-20T18:39:59.166Z,44.49
2023-07-20T18:42:28.117Z,42.32
2023-07-20T18:44:55.734Z,42.21
2023-07-20T18:47:23.334Z,43.22
2023-07-20T18:49:53.980Z,40.84
2023-07-20T18:52:22.399Z,40.78
2023-07-20T18:54:50.016Z,41.19
2023-07-20T18:57:17.658Z,41.56
2023-07-20T18:59:46.628Z,42.29
2023-07-20T19:02:14.252Z,41.97
2023-07-20T19:04:41.907Z,45.88
2023-07-20T19:07:09.503Z,48.73
2023-07-20T19:09:37.124Z,51.02
2023-07-20T19:12:05.270Z,53.17
2023-07-20T19:14:32.893Z,54.59
2023-07-20T19:17:01.854Z,56.27
2023-07-20T19:19:32.269Z,56.12
2023-07-20T19:22:00.377Z,59.29
2023-07-20T19:24:28.003Z,58.35
2023-07-20T19:26:55.603Z,59.23
2023-07-20T19:29:23.174Z,58.21
2023-07-20T19:31:50.835Z,60.63
2023-07-20T19:34:19.780Z,59.21
2023-07-20T19:36:50.220Z,57.23
2023-07-20T19:39:17.883Z,58.55
2023-07-20T19:41:45.482Z,53.92
2023-07-20T19:44:13.137Z,50.45
2023-07-20T19:46:40.936Z,58.68
2023-07-20T19:49:08.837Z,61.16
2023-07-20T19:51:38.918Z,62.46
2023-07-20T19:56:37.534Z,61.32
2023-07-20T19:59:06.074Z,63.75
2023-07-20T20:06:34.777Z,64.33
2023-07-20T20:09:03.918Z,65.78
2023-07-20T20:11:31.520Z,66.45
2023-07-20T20:13:59.145Z,66.72
2023-07-20T20:16:26.993Z,67.63
2023-07-20T20:18:54.830Z,66.95
2023-07-20T20:21:23.203Z,66.45
2023-07-20T20:23:51.142Z,67.80
2023-07-20T20:26:20.230Z,68.39
2023-07-20T20:28:47.947Z,69.93
2023-07-20T20:31:15.722Z,70.71
2023-07-20T20:33:43.442Z,72.11
2023-07-20T20:36:11.077Z,72.20
2023-07-20T20:38:38.706Z,73.22
2023-07-20T20:41:08.702Z,74.37
2023-07-20T20:43:37.753Z,74.94
2023-07-20T20:46:06.728Z,75.54
2023-07-20T20:48:38.609Z,75.74
2023-07-20T20:51:06.718Z,76.13
2023-07-20T20:53:34.362Z,76.48
2023-07-20T20:56:02.334Z,77.37
2023-07-20T20:58:29.952Z,78.06
2023-07-20T21:01:02.784Z,78.80
2023-07-20T21:03:31.046Z,79.43
2023-07-20T21:05:59.203Z,78.77
2023-07-20T21:08:28.319Z,78.75
2023-07-20T21:10:59.607Z,78.16
2023-07-20T21:13:27.309Z,77.70
2023-07-20T21:15:55.607Z,77.84
2023-07-20T21:18:24.586Z,77.87
2023-07-20T21:20:52.298Z,77.34
2023-07-20T21:23:21.014Z,77.47
2023-07-20T21:25:49.228Z,77.70
2023-07-20T21:28:18.431Z,77.58
2023-07-20T21:30:47.458Z,77.39
2023-07-20T21:33:15.331Z,77.54
2023-07-20T21:35:45.065Z,77.54
2023-07-20T21:38:13.017Z,77.77
2023-07-20T21:40:41.008Z,78.34
2023-07-20T21:43:09.058Z,79.15
2023-07-20T21:45:36.732Z,79.15
2023-07-20T21:48:04.606Z,79.14
2023-07-20T21:50:32.253Z,78.71
2023-07-20T21:53:01.203Z,79.38
2023-07-20T21:55:29.064Z,80.93
2023-07-20T21:57:56.730Z,80.92
2023-07-20T22:00:25.969Z,80.83
2023-07-20T22:02:54.098Z,81.16
2023-07-20T22:05:22.430Z,81.02
2023-07-20T22:07:50.423Z,81.95
2023-07-20T22:10:32.546Z,81.60
2023-07-20T22:13:00.526Z,81.53
2023-07-20T22:15:28.498Z,79.48
2023-07-20T22:17:56.126Z,78.91
2023-07-20T22:20:25.421Z,78.54
2023-07-20T22:22:53.054Z,76.85
2023-07-20T22:25:22.458Z,78.39
2023-07-20T22:27:50.111Z,79.58
2023-07-20T22:30:20.405Z,80.40
2023-07-20T22:32:48.608Z,81.20
2023-07-20T22:35:16.312Z,82.03
2023-07-20T22:37:43.994Z,82.57
2023-07-20T22:40:12.369Z,82.75
2023-07-20T22:42:41.730Z,81.46
2023-07-20T22:45:10.800Z,80.85
2023-07-20T22:47:39.581Z,79.81
2023-07-20T22:50:08.735Z,79.55
2023-07-20T22:52:36.960Z,80.62
2023-07-20T22:55:05.851Z,82.93
2023-07-20T22:57:34.199Z,83.35
2023-07-20T23:00:14.346Z,83.36
2023-07-20T23:02:43.600Z,83.60
2023-07-20T23:05:11.487Z,83.46
2023-07-20T23:07:41.250Z,83.82
2023-07-20T23:10:10.874Z,84.01
2023-07-20T23:12:38.605Z,83.41
2023-07-20T23:15:09.936Z,83.90
2023-07-20T23:17:37.625Z,84.23
2023-07-20T23:20:08.244Z,83.50
2023-07-20T23:22:35.835Z,83.25
2023-07-20T23:25:03.831Z,83.76
2023-07-20T23:27:31.470Z,82.05
2023-07-20T23:29:59.111Z,81.07
2023-07-20T23:32:28.109Z,78.32
2023-07-20T23:34:55.938Z,78.69
2023-07-20T23:37:23.540Z,77.35
2023-07-20T23:39:53.226Z,78.46
2023-07-20T23:42:21.078Z,79.42
2023-07-20T23:44:48.955Z,82.25
2023-07-20T23:47:16.992Z,82.03
2023-07-20T23:49:46.012Z,82.42
2023-07-20T23:52:13.691Z,82.27
2023-07-20T23:54:41.301Z,83.21
2023-07-20T23:57:08.971Z,82.01
2023-07-20T23:59:38.627Z,82.86
